Moose Heights, Canada
Current Conditions -  °F | °C
As of 10:00 AM on Friday 28 Nov 2014 (Local Time) from CYQZ Reporting Station
Broken Clouds Broken Clouds  
Wind Chill: -16°   Ceiling: 2600
Heat Index:   Visibility: 9mi
Dew Point: -6°   Wind: 13mph
Humidity: 72%   Direction: 320°NW
Pressure: 29.89"   Gusts: NA
Location:  53.09°N, 122.49°W
Report Text: CYQZ 281800Z AUTO 32011KT 9SM BKN026 M17/M21 A2989 RMK SLP171
Loading
Personal Weather Stations






























Interactive Weather Map New forecast layout! Learn more

10-Day Weather Forecast

Advertisements
Track Severe Weather on mobile